Time;durP1;ratioP1;P1;durP2;ratioP2;P2;SDS_P1;SDS_P2;PMS_P1;PMS_P2;Temp;Humidity;BMP_temperature;BMP_pressure;BME280_temperature;BME280_humidity;BME280_pressure;Samples;Min_cycle;Max_cycle;Signal;HPM_P1;HPM_P2
2023/04/01 00:00:13;;;;;;;13.20;6.60;;;;;;;9.19;100.00;99019.22;7395899;19;20432;-47
2023/04/01 00:02:42;;;;;;;23.27;11.30;;;;;;;9.17;100.00;99015.72;7391589;19;20517;-47
2023/04/01 00:05:12;;;;;;;16.13;8.30;;;;;;;9.23;100.00;99020.16;7395066;19;20423;-49
2023/04/01 00:07:45;;;;;;;20.47;8.97;;;;;;;9.11;100.00;99015.59;7392284;19;20484;-52
2023/04/01 00:10:15;;;;;;;31.30;15.97;;;;;;;9.22;100.00;99021.84;7393519;19;20453;-48
2023/04/01 00:12:45;;;;;;;23.90;10.33;;;;;;;9.22;100.00;99024.41;7390000;19;20443;-50
2023/04/01 00:15:15;;;;;;;14.70;6.80;;;;;;;9.13;100.00;99019.09;7391085;19;20403;-52
2023/04/01 00:17:44;;;;;;;12.57;7.63;;;;;;;9.13;100.00;99026.81;7396214;19;20435;-50
2023/04/01 00:20:15;;;;;;;12.27;6.37;;;;;;;9.11;100.00;99028.47;7388004;19;20463;-49
2023/04/01 00:22:47;;;;;;;14.53;6.80;;;;;;;9.13;100.00;99037.09;7394822;19;20407;-47
2023/04/01 00:25:16;;;;;;;17.87;8.90;;;;;;;9.12;100.00;99043.09;7387727;19;20419;-50
2023/04/01 00:27:46;;;;;;;12.70;7.00;;;;;;;9.09;100.00;99037.88;7394297;19;20422;-49
2023/04/01 00:30:16;;;;;;;14.13;6.43;;;;;;;9.09;100.00;99037.88;7387401;19;20494;-49
2023/04/01 00:32:46;;;;;;;14.07;6.20;;;;;;;9.16;100.00;99039.72;7394979;19;20420;-47
2023/04/01 00:35:16;;;;;;;27.33;12.20;;;;;;;9.19;100.00;99039.81;7389120;19;20440;-51
2023/04/01 00:37:49;;;;;;;18.63;8.17;;;;;;;9.18;100.00;99038.06;7395194;19;20403;-53
2023/04/01 00:40:27;;;;;;;13.33;6.93;;;;;;;9.11;100.00;99041.34;7389358;19;20500;-48
2023/04/01 00:42:56;;;;;;;15.23;7.60;;;;;;;9.09;100.00;99040.44;7394286;19;20411;-48
2023/04/01 00:45:30;;;;;;;17.57;8.10;;;;;;;9.04;100.00;99046.34;7388782;19;20468;-48
2023/04/01 00:48:02;;;;;;;21.80;10.03;;;;;;;9.09;100.00;99051.63;7393425;19;20923;-49
2023/04/01 00:50:33;;;;;;;20.00;8.53;;;;;;;9.07;100.00;99050.69;7388875;19;20465;-48
2023/04/01 00:53:06;;;;;;;11.57;7.00;;;;;;;9.19;100.00;99050.09;7392130;19;20407;-50
2023/04/01 00:55:38;;;;;;;24.00;9.87;;;;;;;9.11;100.00;99054.19;7389790;19;20995;-49
2023/04/01 00:58:10;;;;;;;30.03;13.57;;;;;;;9.13;100.00;99052.53;7395144;19;20408;-51
2023/04/01 01:00:40;;;;;;;17.13;8.30;;;;;;;9.10;100.00;99055.03;7389186;19;20455;-49
2023/04/01 01:03:10;;;;;;;28.80;12.40;;;;;;;9.05;100.00;99066.13;7395619;19;20801;-52
2023/04/01 01:05:50;;;;;;;8.90;5.90;;;;;;;9.00;100.00;99056.56;7389538;19;20428;-50
2023/04/01 01:08:30;;;;;;;11.57;6.70;;;;;;;9.15;100.00;99074.00;7394889;19;20424;-51
2023/04/01 01:10:59;;;;;;;12.60;7.07;;;;;;;9.06;100.00;99064.41;7389660;19;20471;-49
2023/04/01 01:13:33;;;;;;;14.17;7.00;;;;;;;9.19;100.00;99065.53;7393604;19;20403;-52
2023/04/01 01:16:07;;;;;;;76.90;35.43;;;;;;;9.10;100.00;99071.34;7390121;19;20906;-49
2023/04/01 01:18:39;;;;;;;42.63;20.73;;;;;;;9.23;100.00;99072.47;7393573;19;20414;-50
2023/04/01 01:21:31;;;;;;;37.00;19.43;;;;;;;9.30;100.00;99074.34;7390512;19;20443;-48
2023/04/01 01:24:19;;;;;;;20.20;10.00;;;;;;;9.28;100.00;99065.69;7391147;19;20392;-49
2023/04/01 01:26:57;;;;;;;25.43;13.40;;;;;;;9.32;100.00;99075.22;7393008;19;20407;-50
2023/04/01 01:30:02;;;;;;;24.20;9.80;;;;;;;9.20;100.00;99077.56;7390610;19;20789;-49
2023/04/01 01:33:04;;;;;;;18.27;8.63;;;;;;;9.15;100.00;99084.31;7391352;19;20974;-52
2023/04/01 01:35:38;;;;;;;17.40;8.63;;;;;;;9.31;100.00;99086.38;7387523;19;20487;-50
2023/04/01 01:38:11;;;;;;;21.63;8.20;;;;;;;9.34;100.00;99083.00;7392484;19;21023;-54
2023/04/01 01:40:42;;;;;;;11.60;7.13;;;;;;;9.29;100.00;99087.19;7389221;19;20439;-52
2023/04/01 01:43:14;;;;;;;13.47;7.60;;;;;;;9.16;100.00;99096.34;7392412;19;20411;-49
2023/04/01 01:45:49;;;;;;;12.87;6.57;;;;;;;9.23;100.00;99098.19;7389853;19;21040;-51
2023/04/01 01:48:19;;;;;;;12.53;7.17;;;;;;;9.18;100.00;99100.69;7393865;19;20409;-49
2023/04/01 01:50:52;;;;;;;13.33;6.80;;;;;;;9.20;100.00;99103.28;7389520;19;20456;-49
2023/04/01 01:53:22;;;;;;;11.70;6.83;;;;;;;9.27;100.00;99101.69;7391545;19;20404;-48
2023/04/01 01:55:52;;;;;;;17.33;7.07;;;;;;;9.46;100.00;99110.66;7385484;19;20455;-48
2023/04/01 01:58:25;;;;;;;26.17;11.57;;;;;;;9.32;100.00;99105.25;7388953;19;20967;-50
2023/04/01 02:00:57;;;;;;;15.60;8.93;;;;;;;9.47;100.00;99102.09;7384717;19;20466;-48
2023/04/01 02:03:27;;;;;;;32.47;16.17;;;;;;;9.42;100.00;99114.91;7392191;19;21053;-51
2023/04/01 02:06:02;;;;;;;21.00;10.87;;;;;;;9.48;100.00;99111.56;7393045;19;20447;-49
2023/04/01 02:08:37;;;;;;;14.40;7.40;;;;;;;9.23;100.00;99117.94;7395283;19;20424;-49
2023/04/01 02:11:09;;;;;;;15.37;6.63;;;;;;;9.13;100.00;99119.44;7390565;19;20446;-49
2023/04/01 02:13:43;;;;;;;14.07;6.87;;;;;;;9.22;100.00;99127.34;7396140;19;20420;-48
2023/04/01 02:16:16;;;;;;;10.80;6.70;;;;;;;9.08;100.00;99128.75;7392110;19;20447;-49
2023/04/01 02:18:48;;;;;;;12.33;6.50;;;;;;;9.06;100.00;99123.56;7395778;19;20439;-48
2023/04/01 02:21:23;;;;;;;11.67;6.90;;;;;;;8.98;100.00;99125.97;7393051;19;20470;-48
2023/04/01 02:23:53;;;;;;;12.23;6.43;;;;;;;9.10;100.00;99127.97;7396550;19;20427;-49
2023/04/01 02:26:23;;;;;;;16.83;7.40;;;;;;;9.06;100.00;99126.16;7396707;19;20461;-49
2023/04/01 02:28:53;;;;;;;16.90;6.83;;;;;;;9.07;100.00;99122.72;7398482;19;20431;-52
2023/04/01 02:31:23;;;;;;;12.10;6.80;;;;;;;9.17;100.00;99121.22;7394400;19;20459;-48
2023/04/01 02:33:53;;;;;;;13.53;6.50;;;;;;;9.14;100.00;99113.44;7396056;19;20408;-48
2023/04/01 02:36:26;;;;;;;21.80;7.60;;;;;;;9.09;100.00;99126.22;7396727;19;20447;-48
2023/04/01 02:38:59;;;;;;;11.20;6.20;;;;;;;9.04;100.00;99133.81;7396276;19;20430;-48
2023/04/01 02:41:28;;;;;;;15.20;6.40;;;;;;;9.07;100.00;99129.59;7396005;19;20443;-47
2023/04/01 02:43:59;;;;;;;14.10;6.30;;;;;;;8.95;100.00;99127.59;7392159;19;20403;-46
2023/04/01 02:46:28;;;;;;;11.30;6.27;;;;;;;9.10;100.00;99127.06;7395772;19;20420;-47
2023/04/01 02:48:58;;;;;;;13.03;7.30;;;;;;;9.23;100.00;99128.22;7394361;19;20403;-47
2023/04/01 02:51:30;;;;;;;13.50;5.90;;;;;;;9.07;100.00;99130.44;7395411;19;20439;-50
2023/04/01 02:54:01;;;;;;;12.40;6.43;;;;;;;9.19;100.00;99132.44;7395108;19;20479;-51
2023/04/01 02:56:30;;;;;;;13.77;7.07;;;;;;;9.07;100.00;99132.16;7396930;19;20961;-47
2023/04/01 02:59:00;;;;;;;12.50;6.40;;;;;;;9.01;100.00;99138.91;7394355;19;20423;-48
2023/04/01 03:01:30;;;;;;;13.20;6.67;;;;;;;9.08;100.00;99141.63;7396634;19;20461;-47
2023/04/01 03:03:59;;;;;;;11.90;5.93;;;;;;;9.19;100.00;99138.44;7394796;19;20403;-49
2023/04/01 03:06:32;;;;;;;11.27;6.73;;;;;;;9.13;100.00;99151.16;7395029;19;20408;-47
2023/04/01 03:09:01;;;;;;;10.40;6.53;;;;;;;9.12;100.00;99146.00;7396986;19;20943;-47
2023/04/01 03:11:31;;;;;;;12.03;6.37;;;;;;;9.09;100.00;99151.06;7395876;19;20439;-46
2023/04/01 03:14:00;;;;;;;13.97;7.00;;;;;;;9.15;100.00;99152.09;7392566;19;20419;-49
2023/04/01 03:16:30;;;;;;;14.50;7.93;;;;;;;9.04;100.00;99154.41;7396061;19;20427;-53
2023/04/01 03:19:01;;;;;;;19.43;6.70;;;;;;;8.98;100.00;99158.56;7394696;19;20400;-48
2023/04/01 03:21:33;;;;;;;14.07;7.30;;;;;;;9.06;100.00;99151.88;7396224;19;20443;-48
2023/04/01 03:24:03;;;;;;;14.57;7.70;;;;;;;9.10;100.00;99163.09;7396623;19;20428;-50
2023/04/01 03:26:32;;;;;;;11.70;6.33;;;;;;;9.21;100.00;99153.91;7396189;19;20400;-48
2023/04/01 03:29:02;;;;;;;14.03;7.23;;;;;;;9.18;100.00;99156.44;7394001;19;20412;-50
2023/04/01 03:31:32;;;;;;;14.10;7.27;;;;;;;9.18;100.00;99154.72;7395186;19;20451;-47
2023/04/01 03:34:01;;;;;;;18.23;8.50;;;;;;;9.07;100.00;99170.75;7393899;19;20786;-47
2023/04/01 03:36:34;;;;;;;10.27;6.63;;;;;;;9.11;100.00;99165.72;7394613;19;20419;-48
2023/04/01 03:39:03;;;;;;;12.40;7.50;;;;;;;9.24;100.00;99159.16;7393514;19;20495;-47
2023/04/01 03:41:34;;;;;;;12.77;7.50;;;;;;;9.09;100.00;99163.94;7394117;19;20456;-50
2023/04/01 03:44:04;;;;;;;11.30;7.00;;;;;;;9.13;100.00;99163.19;7388091;19;20399;-48
2023/04/01 03:46:33;;;;;;;18.20;8.83;;;;;;;9.11;100.00;99165.72;7394353;19;20404;-45
2023/04/01 03:49:03;;;;;;;13.60;7.87;;;;;;;9.29;100.00;99167.81;7393663;19;20415;-50
2023/04/01 03:51:35;;;;;;;18.10;8.37;;;;;;;9.28;100.00;99171.22;7395735;19;20483;-49
2023/04/01 03:54:05;;;;;;;14.17;8.20;;;;;;;9.34;100.00;99167.94;7394308;19;20431;-47
2023/04/01 03:56:34;;;;;;;12.07;7.70;;;;;;;9.19;100.00;99184.75;7394032;19;20847;-46
2023/04/01 03:59:05;;;;;;;17.43;8.23;;;;;;;9.16;100.00;99179.56;7393209;19;20779;-45
2023/04/01 04:01:35;;;;;;;15.70;8.33;;;;;;;9.10;100.00;99187.13;7394194;19;20443;-46
2023/04/01 04:04:05;;;;;;;15.13;8.47;;;;;;;9.13;100.00;99188.91;7393204;19;20422;-49
2023/04/01 04:06:37;;;;;;;13.57;7.63;;;;;;;9.00;100.00;99187.75;7394190;19;20843;-50
2023/04/01 04:09:07;;;;;;;16.10;8.47;;;;;;;9.26;100.00;99183.19;7393478;19;20786;-50
2023/04/01 04:11:36;;;;;;;17.60;8.17;;;;;;;9.30;100.00;99185.00;7394416;19;20441;-47
2023/04/01 04:14:06;;;;;;;15.87;8.47;;;;;;;9.20;100.00;99188.22;7389641;19;20407;-49
2023/04/01 04:16:38;;;;;;;12.97;8.20;;;;;;;9.24;100.00;99191.72;7393657;19;20412;-48
2023/04/01 04:19:08;;;;;;;15.80;8.53;;;;;;;9.13;100.00;99194.06;7392596;19;20428;-47
2023/04/01 04:21:40;;;;;;;15.63;8.10;;;;;;;9.11;100.00;99196.59;7393965;19;20468;-47
2023/04/01 04:24:10;;;;;;;23.93;14.13;;;;;;;9.58;100.00;99193.31;7393215;19;20407;-49
2023/04/01 04:26:39;;;;;;;14.70;8.87;;;;;;;9.47;100.00;99201.66;7391199;19;20412;-48
2023/04/01 04:29:09;;;;;;;28.87;16.10;;;;;;;9.50;100.00;99212.88;7393021;19;20752;-50
2023/04/01 04:31:38;;;;;;;8.13;5.13;;;;;;;8.82;100.00;99226.78;7394750;19;20451;-46
2023/04/01 04:34:08;;;;;;;11.43;6.80;;;;;;;8.41;100.00;99228.28;7394405;19;20408;-50
2023/04/01 04:36:40;;;;;;;8.53;5.37;;;;;;;8.22;100.00;99240.66;7395142;19;20408;-46
2023/04/01 04:39:10;;;;;;;4.80;3.53;;;;;;;8.01;100.00;99250.34;7391823;19;20423;-48
2023/04/01 04:41:40;;;;;;;4.63;2.40;;;;;;;7.93;100.00;99253.56;7393870;19;20975;-50
2023/04/01 04:44:09;;;;;;;5.40;3.23;;;;;;;7.88;100.00;99260.28;7391148;19;20403;-48
2023/04/01 04:46:39;;;;;;;8.40;5.07;;;;;;;7.86;100.00;99264.50;7392774;19;20990;-49
2023/04/01 04:49:09;;;;;;;17.63;10.30;;;;;;;7.86;100.00;99261.94;7392188;19;20482;-46
2023/04/01 04:51:41;;;;;;;9.20;5.67;;;;;;;7.80;100.00;99260.03;7393823;19;20472;-49
2023/04/01 04:54:11;;;;;;;26.90;15.27;;;;;;;7.84;100.00;99266.13;7391920;19;20411;-46
2023/04/01 04:56:40;;;;;;;11.30;6.60;;;;;;;7.54;100.00;99264.44;7395104;19;20395;-50
2023/04/01 04:59:10;;;;;;;3.30;2.30;;;;;;;7.34;100.00;99267.22;7393132;19;20412;-47
2023/04/01 05:01:40;;;;;;;3.50;2.10;;;;;;;7.12;100.00;99278.50;7393266;19;20468;-50
2023/04/01 05:04:10;;;;;;;4.97;2.10;;;;;;;7.06;100.00;99265.50;7392348;19;20629;-50
2023/04/01 05:06:42;;;;;;;3.00;1.77;;;;;;;6.95;100.00;99266.03;7393950;19;20411;-48
2023/04/01 05:09:11;;;;;;;3.40;1.97;;;;;;;6.93;100.00;99266.81;7393542;19;20399;-47
2023/04/01 05:11:41;;;;;;;4.77;2.00;;;;;;;6.88;100.00;99264.94;7392634;19;20470;-47
2023/04/01 05:14:15;;;;;;;3.83;2.37;;;;;;;6.85;100.00;99277.69;7392911;19;20432;-49
2023/04/01 05:16:44;;;;;;;5.80;2.77;;;;;;;6.78;100.00;99283.44;7394488;19;20779;-48
2023/04/01 05:19:14;;;;;;;5.10;2.33;;;;;;;6.71;100.00;99269.53;7391576;19;20411;-49
2023/04/01 05:21:46;;;;;;;4.23;2.30;;;;;;;6.67;100.00;99271.94;7393133;19;20443;-50
2023/04/01 05:24:15;;;;;;;3.53;2.23;;;;;;;6.64;100.00;99274.38;7391444;19;20761;-48
2023/04/01 05:26:45;;;;;;;3.20;2.30;;;;;;;6.47;100.00;99272.13;7393938;19;20428;-49
2023/04/01 05:29:14;;;;;;;2.63;1.67;;;;;;;6.40;100.00;99280.44;7392456;19;20974;-48
2023/04/01 05:31:44;;;;;;;3.53;1.83;;;;;;;6.32;100.00;99275.03;7393202;19;20462;-47
2023/04/01 05:34:14;;;;;;;3.93;2.03;;;;;;;6.30;100.00;99280.09;7392854;19;20404;-49
2023/04/01 05:36:46;;;;;;;2.40;1.87;;;;;;;6.23;100.00;99275.56;7392304;19;20403;-46
2023/04/01 05:39:15;;;;;;;3.43;1.90;;;;;;;6.22;100.00;99281.53;7389062;19;20408;-50
2023/04/01 05:41:45;;;;;;;3.37;1.90;;;;;;;6.17;100.00;99280.47;7392812;19;20799;-50
2023/04/01 05:44:15;;;;;;;2.97;1.60;;;;;;;6.15;100.00;99293.22;7390394;19;20411;-52
2023/04/01 05:46:45;;;;;;;4.97;2.80;;;;;;;6.07;100.00;99292.09;7392594;19;20420;-50
2023/04/01 05:49:14;;;;;;;2.30;1.60;;;;;;;6.03;100.00;99296.22;7390390;19;20418;-47
2023/04/01 05:51:46;;;;;;;3.63;1.93;;;;;;;5.99;100.00;99299.44;7392533;19;20446;-48
2023/04/01 05:54:16;;;;;;;4.07;2.37;;;;;;;6.03;100.00;99306.47;7390742;19;20420;-49
2023/04/01 05:56:45;;;;;;;2.30;1.33;;;;;;;5.89;100.00;99307.63;7391932;19;20497;-48
2023/04/01 05:59:19;;;;;;;3.10;1.50;;;;;;;5.85;100.00;99316.00;7388713;19;20415;-47
2023/04/01 06:01:49;;;;;;;3.00;1.60;;;;;;;5.83;100.00;99317.63;7392438;19;20451;-48
2023/04/01 06:04:20;;;;;;;3.37;2.10;;;;;;;5.85;100.00;99321.09;7391465;19;21378;-50
2023/04/01 06:06:52;;;;;;;2.43;1.43;;;;;;;5.81;100.00;99332.91;7392034;19;20412;-49
2023/04/01 06:09:26;;;;;;;3.07;1.50;;;;;;;5.63;100.00;99340.75;7389012;19;20422;-50
2023/04/01 06:12:18;;;;;;;2.10;1.30;;;;;;;5.60;100.00;99343.19;7391356;19;20479;-52
2023/04/01 06:14:54;;;;;;;3.23;1.90;;;;;;;5.59;100.00;99349.97;7386113;19;20439;-49
2023/04/01 06:17:29;;;;;;;2.70;1.43;;;;;;;5.54;100.00;99343.84;7390940;19;20942;-48
2023/04/01 06:20:06;;;;;;;4.60;2.20;;;;;;;5.57;100.00;99358.41;7387670;19;21264;-47
2023/04/01 06:22:48;;;;;;;2.50;1.60;;;;;;;5.50;100.00;99359.88;7393179;19;20441;-48
2023/04/01 06:25:25;;;;;;;3.47;2.30;;;;;;;5.43;100.00;99368.97;7388054;19;20436;-49
2023/04/01 06:28:31;;;;;;;2.93;1.70;;;;;;;5.46;100.00;99374.22;7390405;19;20740;-49
2023/04/01 06:31:07;;;;;;;3.03;2.03;;;;;;;5.48;100.00;99377.72;7387299;19;20998;-48
2023/04/01 06:33:46;;;;;;;3.97;1.63;;;;;;;5.37;100.00;99389.19;7390826;19;20792;-53
2023/04/01 06:36:28;;;;;;;2.63;1.70;;;;;;;5.40;100.00;99391.88;7388371;19;20450;-51
2023/04/01 06:39:11;;;;;;;2.40;1.40;;;;;;;5.35;100.00;99401.06;7390594;19;20412;-49
2023/04/01 06:42:04;;;;;;;3.50;2.50;;;;;;;5.29;100.00;99405.91;7390432;19;20451;-50
2023/04/01 06:44:40;;;;;;;4.13;1.70;;;;;;;5.22;100.00;99410.78;7386850;19;20432;-52
2023/04/01 06:47:21;;;;;;;4.20;2.20;;;;;;;5.20;100.00;99417.50;7390506;19;20407;-52
2023/04/01 06:49:56;;;;;;;2.23;1.53;;;;;;;5.17;100.00;99419.94;7387128;19;20411;-48
2023/04/01 06:52:29;;;;;;;2.00;1.30;;;;;;;5.14;100.00;99414.69;7396856;19;20403;-47
2023/04/01 06:55:05;;;;;;;2.70;1.47;;;;;;;5.13;100.00;99420.63;7392905;19;20439;-48
2023/04/01 06:57:38;;;;;;;2.73;1.40;;;;;;;5.10;100.00;99420.47;7396648;19;20415;-51
2023/04/01 07:00:15;;;;;;;4.03;1.73;;;;;;;5.11;100.00;99432.44;7393459;19;20419;-47
2023/04/01 07:02:53;;;;;;;2.40;1.50;;;;;;;5.12;100.00;99429.97;7397088;19;20775;-51
2023/04/01 07:05:23;;;;;;;2.27;1.37;;;;;;;5.08;100.00;99434.91;7393874;19;20441;-53
2023/04/01 07:07:55;;;;;;;3.33;1.43;;;;;;;5.08;100.00;99434.91;7399549;19;20411;-51
2023/04/01 07:10:33;;;;;;;2.07;1.33;;;;;;;5.05;100.00;99443.31;7392339;19;20459;-48
2023/04/01 07:13:06;;;;;;;1.90;1.10;;;;;;;4.99;100.00;99448.16;7397628;19;20435;-50
2023/04/01 07:15:39;;;;;;;3.27;1.40;;;;;;;5.02;100.00;99453.38;7392152;19;20435;-50
2023/04/01 07:18:13;;;;;;;2.53;1.00;;;;;;;5.00;100.00;99460.13;7397261;19;20452;-50
2023/04/01 07:20:43;;;;;;;2.63;1.23;;;;;;;5.02;100.00;99465.31;7392508;19;20454;-50
2023/04/01 07:23:22;;;;;;;2.40;1.20;;;;;;;5.02;100.00;99462.75;7397113;19;20940;-50
2023/04/01 07:25:58;;;;;;;2.20;1.30;;;;;;;5.02;100.00;99478.94;7392887;19;20432;-48
2023/04/01 07:28:33;;;;;;;1.60;1.07;;;;;;;4.98;100.00;99483.06;7395540;19;20399;-50
2023/04/01 07:31:11;;;;;;;2.83;1.40;;;;;;;4.99;100.00;99489.91;7392480;19;20478;-53
2023/04/01 07:33:45;;;;;;;2.37;1.43;;;;;;;4.94;100.00;99499.09;7396135;19;20439;-48
2023/04/01 07:36:17;;;;;;;2.47;1.27;;;;;;;4.97;100.00;99506.88;7393629;19;20462;-50
2023/04/01 07:38:58;;;;;;;2.10;1.37;;;;;;;4.94;100.00;99509.31;7398250;19;20408;-50
2023/04/01 07:41:35;;;;;;;2.63;1.30;;;;;;;4.84;100.00;99517.38;7395469;19;20491;-50
2023/04/01 07:44:12;;;;;;;2.40;1.40;;;;;;;4.82;100.00;99526.66;7393462;19;20415;-52
2023/04/01 07:46:56;;;;;;;2.60;1.60;;;;;;;4.84;100.00;99532.69;7394883;19;20432;-48
2023/04/01 07:49:32;;;;;;;3.40;1.67;;;;;;;4.92;100.00;99527.94;7391550;19;20954;-49
2023/04/01 07:52:04;;;;;;;4.17;2.10;;;;;;;4.94;100.00;99532.31;7395898;19;20450;-50
2023/04/01 07:54:40;;;;;;;2.73;1.87;;;;;;;4.84;100.00;99537.81;7392361;19;20437;-47
2023/04/01 07:57:15;;;;;;;4.00;1.60;;;;;;;4.86;100.00;99546.41;7395885;19;20415;-47
2023/04/01 07:59:52;;;;;;;3.23;1.90;;;;;;;4.85;100.00;99554.88;7392083;19;20422;-51
2023/04/01 08:02:36;;;;;;;2.23;1.47;;;;;;;4.83;100.00;99548.84;7394873;19;20982;-50
2023/04/01 08:05:12;;;;;;;2.20;1.43;;;;;;;4.71;100.00;99570.47;7392813;19;20510;-47
2023/04/01 08:07:48;;;;;;;2.80;1.07;;;;;;;4.77;100.00;99566.44;7394960;19;20403;-48
2023/04/01 08:10:23;;;;;;;7.60;1.80;;;;;;;4.80;100.00;99574.25;7391841;19;20467;-51
2023/04/01 08:13:05;;;;;;;1.80;1.10;;;;;;;4.78;100.00;99581.88;7395673;19;20407;-53
2023/04/01 08:15:38;;;;;;;2.77;1.47;;;;;;;4.72;100.00;99579.88;7390178;19;20439;-49
2023/04/01 08:18:15;;;;;;;2.20;1.23;;;;;;;4.83;100.00;99587.19;7395312;19;20797;-51
2023/04/01 08:20:48;;;;;;;2.50;1.63;;;;;;;4.85;100.00;99588.13;7390295;19;20449;-47
2023/04/01 08:23:20;;;;;;;2.63;1.50;;;;;;;4.89;100.00;99584.03;7395194;19;20419;-47
2023/04/01 08:25:54;;;;;;;2.33;1.30;;;;;;;4.87;100.00;99596.72;7390847;19;20438;-52
2023/04/01 08:28:30;;;;;;;3.10;1.53;;;;;;;4.76;100.00;99598.78;7394128;19;20417;-50
2023/04/01 08:31:03;;;;;;;4.60;2.00;;;;;;;4.79;100.00;99603.16;7390810;19;20478;-50
2023/04/01 08:33:34;;;;;;;3.37;2.27;;;;;;;4.82;100.00;99606.75;7396427;19;20422;-50
2023/04/01 08:36:09;;;;;;;7.03;3.20;;;;;;;4.85;100.00;99616.22;7391033;19;20851;-49
2023/04/01 08:38:43;;;;;;;2.77;1.53;;;;;;;4.78;100.00;99616.75;7394299;19;20463;-49
2023/04/01 08:41:30;;;;;;;4.23;2.20;;;;;;;4.83;100.00;99620.41;7390791;19;21015;-49
2023/04/01 08:44:30;;;;;;;4.90;1.90;;;;;;;4.82;100.00;99628.88;7392288;19;20441;-48
2023/04/01 08:47:12;;;;;;;2.93;1.03;;;;;;;4.83;100.00;99639.16;7394140;19;20469;-47
2023/04/01 08:50:05;;;;;;;3.20;1.50;;;;;;;4.82;100.00;99644.22;7390285;19;20419;-53
2023/04/01 08:52:39;;;;;;;3.03;1.43;;;;;;;4.84;100.00;99643.50;7393886;19;20482;-48
2023/04/01 08:55:34;;;;;;;2.80;1.63;;;;;;;4.88;100.00;99644.50;7390411;19;20447;-50
2023/04/01 08:58:26;;;;;;;1.87;1.03;;;;;;;4.86;100.00;99651.22;7394199;19;21116;-48
2023/04/01 09:01:12;;;;;;;2.57;1.20;;;;;;;4.91;100.00;99656.56;7390025;19;21250;-52
2023/04/01 09:03:51;;;;;;;2.33;1.10;;;;;;;4.99;100.00;99666.31;7393228;19;20421;-49
2023/04/01 09:06:28;;;;;;;2.00;1.20;;;;;;;4.95;100.00;99661.00;7390396;19;20495;-49
2023/04/01 09:09:30;;;;;;;3.03;1.27;;;;;;;5.00;100.00;99662.97;7393278;19;20408;-49
2023/04/01 09:12:45;;;;;;;2.40;1.83;;;;;;;5.11;100.00;99667.69;7389051;19;20483;-48
2023/04/01 09:15:27;;;;;;;1.90;1.10;;;;;;;5.05;100.00;99672.53;7381879;19;20411;-49
2023/04/01 09:18:24;;;;;;;4.13;1.67;;;;;;;5.06;100.00;99679.38;7392889;19;20415;-51
2023/04/01 09:21:13;;;;;;;2.70;1.20;;;;;;;5.09;100.00;99679.53;7388204;19;21039;-52
2023/04/01 09:23:55;;;;;;;2.03;0.80;;;;;;;5.04;100.00;99691.22;7392794;19;21006;-50
2023/04/01 09:26:36;;;;;;;1.80;0.97;;;;;;;4.96;100.00;99689.19;7392014;19;20817;-48
2023/04/01 09:29:17;;;;;;;1.47;0.87;;;;;;;4.99;100.00;99701.25;7390334;19;20420;-47
2023/04/01 09:32:04;;;;;;;2.93;1.13;;;;;;;5.03;100.00;99700.56;7392719;19;20484;-49
2023/04/01 09:34:49;;;;;;;1.67;0.87;;;;;;;5.03;100.00;99718.47;7388207;19;20427;-47
2023/04/01 09:37:23;;;;;;;1.50;0.87;;;;;;;5.08;100.00;99718.72;7390899;19;20408;-47
2023/04/01 09:40:12;;;;;;;2.53;1.03;;;;;;;5.15;100.00;99730.97;7388190;19;20415;-48
2023/04/01 09:42:47;;;;;;;3.63;1.30;;;;;;;5.23;100.00;99739.88;7392311;19;21295;-48
2023/04/01 09:45:30;;;;;;;2.10;0.97;;;;;;;5.16;100.00;99740.41;7388075;19;20431;-50
2023/04/01 09:48:10;;;;;;;1.47;0.70;;;;;;;5.17;100.00;99743.84;7394215;19;20404;-53
2023/04/01 09:50:49;;;;;;;2.77;1.20;;;;;;;5.21;100.00;99750.84;7387626;19;20791;-51
2023/04/01 09:53:35;;;;;;;1.80;1.00;;;;;;;5.19;100.00;99755.91;7394252;19;20780;-47
2023/04/01 09:56:21;;;;;;;2.20;1.40;;;;;;;5.17;100.00;99754.06;7386561;19;20427;-46
2023/04/01 09:59:24;;;;;;;6.90;1.70;;;;;;;5.11;100.00;99759.75;7392031;19;20400;-49
2023/04/01 10:02:28;;;;;;;7.03;2.60;;;;;;;4.95;100.00;99769.25;7389629;19;20459;-49
2023/04/01 10:05:29;;;;;;;4.33;1.57;;;;;;;5.03;100.00;99768.75;7386475;19;20811;-47
2023/04/01 10:08:17;;;;;;;2.90;0.90;;;;;;;5.12;100.00;99769.16;7391773;19;20415;-50
2023/04/01 10:11:11;;;;;;;4.63;1.10;;;;;;;5.20;100.00;99767.00;7386896;19;20468;-46
2023/04/01 10:14:20;;;;;;;2.27;1.30;;;;;;;5.38;100.00;99772.09;7390415;19;20391;-48
2023/04/01 10:17:27;;;;;;;29.40;13.40;;;;;;;5.45;100.00;99781.84;7390578;19;20443;-50
2023/04/01 10:20:19;;;;;;;43.73;17.60;;;;;;;5.49;100.00;99782.84;7387316;19;20411;-49
2023/04/01 10:23:19;;;;;;;9.93;4.30;;;;;;;5.54;100.00;99787.38;7391596;19;20419;-49
2023/04/01 10:26:07;;;;;;;21.60;7.10;;;;;;;5.52;100.00;99804.34;7388640;19;20457;-49
2023/04/01 10:29:19;;;;;;;18.13;6.60;;;;;;;5.67;100.00;99799.06;7397993;19;20434;-49
2023/04/01 10:32:11;;;;;;;3.20;1.67;;;;;;;5.57;100.00;99806.22;7394490;19;20442;-49
2023/04/01 10:34:51;;;;;;;9.97;4.20;;;;;;;5.69;100.00;99811.91;7396088;19;20434;-48
2023/04/01 10:37:44;;;;;;;30.07;8.83;;;;;;;5.65;100.00;99813.44;7398339;19;20395;-49
2023/04/01 10:40:33;;;;;;;5.23;2.90;;;;;;;5.47;100.00;99821.16;7393424;19;20431;-48
2023/04/01 10:43:38;;;;;;;13.70;6.17;;;;;;;5.43;100.00;99834.59;7397506;19;20967;-51
2023/04/01 10:46:28;;;;;;;17.17;8.27;;;;;;;5.49;100.00;99834.88;7393025;19;20439;-52
2023/04/01 10:49:31;;;;;;;13.53;6.00;;;;;;;5.51;100.00;99837.53;7397019;19;20956;-49
2023/04/01 10:52:27;;;;;;;6.17;1.90;;;;;;;5.54;100.00;99838.53;7397280;19;20447;-49
2023/04/01 10:55:12;;;;;;;2.77;1.27;;;;;;;5.52;100.00;99850.41;7393293;19;20426;-48
2023/04/01 10:58:11;;;;;;;6.03;2.30;;;;;;;5.69;100.00;99847.72;7399546;19;20415;-48
2023/04/01 11:01:00;;;;;;;5.20;2.43;;;;;;;5.70;100.00;99846.97;7394335;19;20451;-49
2023/04/01 11:04:04;;;;;;;2.00;1.13;;;;;;;5.53;100.00;99851.25;7397686;19;20419;-49
2023/04/01 11:07:12;;;;;;;9.30;3.10;;;;;;;5.50;100.00;99862.22;7399338;19;20442;-49
2023/04/01 11:10:05;;;;;;;2.53;1.53;;;;;;;5.61;100.00;99869.53;7394239;19;20419;-50
2023/04/01 11:12:51;;;;;;;3.40;1.30;;;;;;;5.49;100.00;99867.28;7393695;19;20975;-51
2023/04/01 11:15:37;;;;;;;6.47;2.90;;;;;;;5.42;100.00;99871.22;7394069;19;20439;-53
2023/04/01 11:18:39;;;;;;;4.77;3.00;;;;;;;5.31;100.00;99870.69;7397396;19;20756;-49
2023/04/01 11:21:35;;;;;;;9.17;3.10;;;;;;;5.22;100.00;99883.91;7393109;19;20470;-48
2023/04/01 11:24:35;;;;;;;8.20;3.80;;;;;;;5.15;100.00;99889.53;7395588;19;20431;-50
2023/04/01 11:27:13;;;;;;;4.23;2.50;;;;;;;5.22;100.00;99880.47;7396255;19;20806;-51
2023/04/01 11:30:18;;;;;;;5.73;3.60;;;;;;;5.21;100.00;99884.72;7393079;19;20781;-50
2023/04/01 11:32:54;;;;;;;3.63;2.27;;;;;;;5.20;100.00;99882.09;7395243;19;20891;-50
2023/04/01 11:35:35;;;;;;;5.70;2.83;;;;;;;5.24;100.00;99889.13;7391529;19;20437;-50
2023/04/01 11:38:28;;;;;;;8.10;3.40;;;;;;;5.32;100.00;99889.50;7394867;19;20415;-52
2023/04/01 11:41:15;;;;;;;7.47;3.60;;;;;;;5.17;100.00;99893.03;7390148;19;20915;-53
2023/04/01 11:43:51;;;;;;;5.83;3.10;;;;;;;5.13;100.00;99902.22;7396931;19;20416;-52
2023/04/01 11:46:25;;;;;;;5.70;3.40;;;;;;;5.11;100.00;99908.97;7393375;19;20454;-50
2023/04/01 11:49:05;;;;;;;4.07;2.83;;;;;;;5.16;100.00;99905.72;7396337;19;20494;-52
2023/04/01 11:51:45;;;;;;;6.17;3.57;;;;;;;5.12;100.00;99900.47;7395498;19;20454;-52
2023/04/01 11:54:26;;;;;;;7.20;3.40;;;;;;;5.18;100.00;99910.13;7389077;19;20400;-51
2023/04/01 11:57:14;;;;;;;5.47;3.03;;;;;;;5.21;100.00;99904.28;7395633;19;20407;-48
2023/04/01 11:59:54;;;;;;;5.90;3.00;;;;;;;5.06;100.00;99918.06;7393151;19;20423;-49
2023/04/01 12:02:28;;;;;;;5.60;3.20;;;;;;;5.00;100.00;99921.22;7394296;19;20828;-49
2023/04/01 12:05:11;;;;;;;5.97;3.40;;;;;;;4.99;100.00;99924.53;7391477;19;20419;-53
2023/04/01 12:07:55;;;;;;;6.00;3.20;;;;;;;4.97;100.00;99931.25;7395418;19;20428;-49
2023/04/01 12:10:30;;;;;;;5.93;3.10;;;;;;;4.89;100.00;99935.13;7389994;19;20475;-49
2023/04/01 12:13:07;;;;;;;5.77;3.80;;;;;;;4.89;100.00;99937.69;7397703;19;20402;-48
2023/04/01 12:15:46;;;;;;;8.07;3.67;;;;;;;4.96;100.00;99947.41;7389579;19;20804;-48